Time;durP1;ratioP1;P1;durP2;ratioP2;P2;SDS_P1;SDS_P2;PMS_P1;PMS_P2;Temp;Humidity;BMP_temperature;BMP_pressure;BME280_temperature;BME280_humidity;BME280_pressure;Samples;Min_cycle;Max_cycle;Signal;HPM_P1;HPM_P2
2024/01/06 00:02:15;;;;;;;15.07;10.60;;;7.00;99.90;;;;;;6140025;23;20005;-38
2024/01/06 00:04:41;;;;;;;13.88;10.38;;;7.00;99.90;;;;;;6138476;23;20100;-39
2024/01/06 00:07:07;;;;;;;12.50;9.65;;;6.90;99.90;;;;;;6138415;23;20060;-38
2024/01/06 00:09:32;;;;;;;12.90;9.77;;;7.00;99.90;;;;;;6139236;23;20029;-38
2024/01/06 00:11:58;;;;;;;11.52;9.30;;;7.00;99.90;;;;;;6138819;23;20008;-38
2024/01/06 00:14:24;;;;;;;15.38;9.98;;;7.00;99.90;;;;;;6139154;23;20009;-38
2024/01/06 00:16:52;;;;;;;11.70;9.38;;;7.00;99.90;;;;;;6139535;23;20005;-37
2024/01/06 00:19:18;;;;;;;12.60;9.50;;;7.00;99.90;;;;;;6137337;23;20005;-36
2024/01/06 00:21:43;;;;;;;11.38;8.90;;;6.90;99.90;;;;;;6139791;23;20016;-36
2024/01/06 00:24:09;;;;;;;12.38;8.85;;;7.00;99.90;;;;;;6138266;23;20360;-36
2024/01/06 00:26:35;;;;;;;12.35;9.07;;;7.00;99.90;;;;;;6139197;23;20001;-37
2024/01/06 00:29:03;;;;;;;11.88;9.32;;;7.00;99.90;;;;;;6139266;23;20022;-36
2024/01/06 00:31:29;;;;;;;11.98;9.27;;;7.00;99.90;;;;;;6138587;23;20032;-36
2024/01/06 00:34:02;;;;;;;13.55;9.77;;;7.00;99.90;;;;;;6138200;23;20001;-37
2024/01/06 00:36:27;;;;;;;11.90;9.02;;;6.90;99.90;;;;;;6139329;23;20037;-37
2024/01/06 00:38:53;;;;;;;13.73;10.35;;;6.90;99.90;;;;;;6138738;23;20037;-37
2024/01/06 00:41:19;;;;;;;12.80;9.63;;;6.80;99.90;;;;;;6137544;23;20051;-38
2024/01/06 00:43:44;;;;;;;12.18;9.30;;;6.80;99.90;;;;;;6138795;23;20413;-37
2024/01/06 00:46:10;;;;;;;13.27;10.38;;;6.80;99.90;;;;;;6138986;23;20025;-37
2024/01/06 00:48:35;;;;;;;15.52;11.63;;;6.80;99.90;;;;;;6141673;23;20020;-36
2024/01/06 00:51:01;;;;;;;15.75;11.68;;;6.70;99.90;;;;;;6141041;23;20009;-37
2024/01/06 00:53:27;;;;;;;12.68;9.77;;;6.70;99.90;;;;;;6140640;23;20746;-36
2024/01/06 00:55:53;;;;;;;13.77;10.25;;;6.60;99.90;;;;;;6141693;23;20036;-38
2024/01/06 00:58:18;;;;;;;11.75;8.85;;;6.60;99.90;;;;;;6141262;23;20404;-37
2024/01/06 01:00:44;;;;;;;12.30;9.45;;;6.60;99.90;;;;;;6140571;23;20005;-37
2024/01/06 01:03:09;;;;;;;12.20;9.38;;;6.60;99.90;;;;;;6141261;23;20009;-37
2024/01/06 01:05:35;;;;;;;9.35;7.68;;;6.70;99.90;;;;;;6141611;23;20197;-36
2024/01/06 01:08:00;;;;;;;10.30;8.30;;;6.60;99.90;;;;;;6140756;23;20019;-37
2024/01/06 01:10:26;;;;;;;9.45;7.72;;;6.60;99.90;;;;;;6141830;23;20028;-37
2024/01/06 01:12:51;;;;;;;10.02;7.80;;;6.70;99.90;;;;;;6141268;23;20013;-37
2024/01/06 01:15:17;;;;;;;11.38;9.10;;;6.60;99.90;;;;;;6140020;23;20085;-37
2024/01/06 01:17:44;;;;;;;11.80;8.55;;;6.70;99.90;;;;;;6141205;23;20692;-37
2024/01/06 01:20:10;;;;;;;13.90;10.30;;;6.60;99.90;;;;;;6140516;23;20009;-37
2024/01/06 01:22:35;;;;;;;14.07;10.02;;;6.60;99.90;;;;;;6140914;23;20081;-38
2024/01/06 01:25:05;;;;;;;11.75;9.07;;;6.50;99.90;;;;;;6141029;23;20500;-37
2024/01/06 01:27:30;;;;;;;12.70;9.55;;;6.50;99.90;;;;;;6140837;23;20445;-36
2024/01/06 01:29:59;;;;;;;13.32;10.02;;;6.50;99.90;;;;;;6140500;23;20013;-38
2024/01/06 01:32:24;;;;;;;11.70;9.10;;;6.60;99.90;;;;;;6140906;23;20005;-47
2024/01/06 01:34:50;;;;;;;13.68;10.82;;;6.50;99.90;;;;;;6141362;23;20038;-37
2024/01/06 01:37:16;;;;;;;13.45;10.23;;;6.50;99.90;;;;;;6139548;23;20083;-36
2024/01/06 01:39:41;;;;;;;14.23;10.90;;;6.50;99.90;;;;;;6141109;23;20012;-36
2024/01/06 01:42:07;;;;;;;12.30;9.65;;;6.50;99.90;;;;;;6140570;23;20700;-37
2024/01/06 01:44:32;;;;;;;13.25;10.35;;;6.50;99.90;;;;;;6138482;23;20013;-36
2024/01/06 01:46:58;;;;;;;13.90;9.88;;;6.40;99.90;;;;;;6140350;23;20013;-37
2024/01/06 01:49:25;;;;;;;13.07;9.77;;;6.40;99.90;;;;;;6139382;23;20047;-37
2024/01/06 01:51:51;;;;;;;14.23;10.80;;;6.40;99.90;;;;;;6140000;23;20041;-37
2024/01/06 01:54:16;;;;;;;13.05;10.13;;;6.40;99.90;;;;;;6139696;23;20005;-36
2024/01/06 01:56:42;;;;;;;13.40;10.13;;;6.40;99.90;;;;;;6139666;23;20010;-37
2024/01/06 01:59:13;;;;;;;13.73;9.88;;;6.40;99.90;;;;;;6139830;23;20006;-38
2024/01/06 02:01:40;;;;;;;15.05;11.45;;;6.40;99.90;;;;;;6140964;23;20006;-37
2024/01/06 02:04:06;;;;;;;15.00;10.75;;;6.40;99.90;;;;;;6138670;23;20077;-38
2024/01/06 02:06:31;;;;;;;15.20;11.25;;;6.30;99.90;;;;;;6139508;23;20005;-39
2024/01/06 02:08:57;;;;;;;15.88;10.98;;;6.30;99.90;;;;;;6140420;23;20013;-37
2024/01/06 02:11:25;;;;;;;19.30;12.07;;;6.30;99.90;;;;;;6139278;23;20033;-37
2024/01/06 02:13:51;;;;;;;17.30;12.23;;;6.30;99.90;;;;;;6140781;23;20821;-37
2024/01/06 02:16:16;;;;;;;17.52;12.15;;;6.30;99.90;;;;;;6139549;23;20033;-37
2024/01/06 02:18:42;;;;;;;16.63;11.55;;;6.20;99.90;;;;;;6139461;23;20080;-37
2024/01/06 02:21:10;;;;;;;21.23;15.05;;;6.20;99.90;;;;;;6139223;23;20012;-36
2024/01/06 02:23:36;;;;;;;22.95;15.23;;;6.20;99.90;;;;;;6140377;23;20016;-37
2024/01/06 02:26:02;;;;;;;20.65;14.77;;;6.20;99.90;;;;;;6139660;23;20013;-37
2024/01/06 02:28:28;;;;;;;24.00;16.25;;;6.10;99.90;;;;;;6140117;23;20001;-36
2024/01/06 02:30:54;;;;;;;19.30;13.73;;;6.10;99.90;;;;;;6140329;23;20021;-37
2024/01/06 02:33:19;;;;;;;20.15;12.93;;;6.00;99.90;;;;;;6138427;23;20005;-37
2024/01/06 02:35:47;;;;;;;19.10;12.63;;;6.00;99.90;;;;;;6140637;23;20012;-37
2024/01/06 02:38:13;;;;;;;19.17;13.43;;;6.10;99.90;;;;;;6139075;23;20322;-37
2024/01/06 02:40:39;;;;;;;25.52;16.23;;;6.10;99.90;;;;;;6139401;23;20012;-37
2024/01/06 02:43:04;;;;;;;20.75;13.60;;;6.00;99.90;;;;;;6140706;23;20153;-37
2024/01/06 02:45:30;;;;;;;21.15;13.75;;;6.00;99.90;;;;;;6138981;23;20039;-37
2024/01/06 02:47:55;;;;;;;22.25;13.80;;;6.00;99.90;;;;;;6139464;23;20009;-37
2024/01/06 02:50:22;;;;;;;23.23;15.98;;;6.00;99.90;;;;;;6140353;23;20568;-36
2024/01/06 02:52:47;;;;;;;20.92;13.98;;;6.00;99.90;;;;;;6140105;23;20440;-35
2024/01/06 02:55:13;;;;;;;20.30;13.57;;;6.00;99.90;;;;;;6139511;23;20091;-36
2024/01/06 02:57:39;;;;;;;19.90;14.02;;;6.00;99.90;;;;;;6140659;23;20005;-36
2024/01/06 03:00:05;;;;;;;18.17;12.90;;;6.00;99.90;;;;;;6139182;23;20012;-37
2024/01/06 03:02:32;;;;;;;16.25;11.25;;;6.00;99.90;;;;;;6140805;23;20763;-36
2024/01/06 03:04:58;;;;;;;20.83;14.88;;;6.00;99.90;;;;;;6139886;23;20072;-37
2024/01/06 03:07:24;;;;;;;20.73;13.88;;;6.00;99.90;;;;;;6138955;23;20511;-37
2024/01/06 03:09:49;;;;;;;18.90;12.73;;;6.00;99.90;;;;;;6139408;23;20021;-37
2024/01/06 03:12:15;;;;;;;20.27;14.57;;;6.00;99.90;;;;;;6139746;23;20902;-45
2024/01/06 03:14:40;;;;;;;21.45;14.20;;;6.00;99.90;;;;;;6139091;23;20017;-37
2024/01/06 03:17:06;;;;;;;20.85;14.85;;;6.00;99.90;;;;;;6139239;23;20005;-36
2024/01/06 03:19:32;;;;;;;23.35;15.45;;;6.00;99.90;;;;;;6139410;23;20020;-37
2024/01/06 03:21:57;;;;;;;22.65;15.95;;;6.00;99.90;;;;;;6137027;23;20421;-36
2024/01/06 03:24:25;;;;;;;22.00;14.50;;;5.90;99.90;;;;;;6137532;23;20014;-36
2024/01/06 03:26:51;;;;;;;18.33;13.63;;;5.90;99.90;;;;;;6138146;23;20010;-36
2024/01/06 03:29:16;;;;;;;18.15;13.10;;;5.90;99.90;;;;;;6136412;23;20602;-37
2024/01/06 03:31:43;;;;;;;20.13;13.60;;;5.90;99.90;;;;;;6137638;23;20092;-37
2024/01/06 03:34:10;;;;;;;17.52;12.45;;;6.00;99.90;;;;;;6137732;23;20074;-38
2024/01/06 03:36:35;;;;;;;17.10;12.23;;;6.00;99.90;;;;;;6139353;23;20096;-38
2024/01/06 03:39:01;;;;;;;17.50;12.40;;;6.00;99.90;;;;;;6113406;23;20045;-37
2024/01/06 03:41:26;;;;;;;18.38;12.32;;;6.00;99.90;;;;;;6140533;23;20084;-39
2024/01/06 03:43:52;;;;;;;17.20;12.07;;;6.00;99.90;;;;;;6140255;23;20129;-37
2024/01/06 03:46:17;;;;;;;18.75;13.82;;;6.00;99.90;;;;;;6139861;23;20365;-36
2024/01/06 03:48:43;;;;;;;17.90;12.93;;;6.10;99.90;;;;;;6140395;23;20012;-37
2024/01/06 03:51:10;;;;;;;17.95;12.98;;;6.10;99.90;;;;;;6139293;23;20085;-37
2024/01/06 03:53:36;;;;;;;18.75;12.43;;;6.00;99.90;;;;;;6140054;23;20158;-37
2024/01/06 03:56:03;;;;;;;20.45;13.88;;;6.00;99.90;;;;;;6139592;23;20076;-36
2024/01/06 03:58:29;;;;;;;19.48;13.40;;;6.00;99.90;;;;;;6138670;23;20512;-36
2024/01/06 04:00:54;;;;;;;19.42;13.27;;;6.00;99.90;;;;;;6140029;23;20044;-36
2024/01/06 04:03:21;;;;;;;20.30;13.68;;;6.00;99.90;;;;;;6138534;23;20045;-37
2024/01/06 04:05:46;;;;;;;19.52;13.48;;;5.90;99.90;;;;;;6140367;23;20012;-36
2024/01/06 04:08:12;;;;;;;24.13;16.35;;;6.00;99.90;;;;;;6139090;23;20006;-36
2024/01/06 04:10:38;;;;;;;24.33;16.02;;;6.00;99.90;;;;;;6137936;23;20024;-36
2024/01/06 04:13:04;;;;;;;22.90;15.93;;;5.90;99.90;;;;;;6138398;23;20616;-35
2024/01/06 04:15:31;;;;;;;30.25;17.45;;;5.90;99.90;;;;;;6139366;23;20013;-36
2024/01/06 04:18:01;;;;;;;24.80;16.40;;;5.90;99.90;;;;;;6138717;23;20001;-36
2024/01/06 04:20:26;;;;;;;25.17;15.90;;;5.80;99.90;;;;;;6138427;23;20008;-36
2024/01/06 04:22:52;;;;;;;21.55;14.65;;;5.80;99.90;;;;;;6138815;23;20017;-38
2024/01/06 04:25:17;;;;;;;21.38;14.10;;;5.80;99.90;;;;;;6137382;23;20696;-37
2024/01/06 04:27:45;;;;;;;20.23;13.63;;;5.80;99.90;;;;;;6139537;23;20009;-37
2024/01/06 04:30:14;;;;;;;22.80;14.80;;;5.90;99.90;;;;;;6139484;23;20041;-37
2024/01/06 04:32:40;;;;;;;20.08;14.02;;;5.90;99.90;;;;;;6138806;23;20002;-37
2024/01/06 04:35:06;;;;;;;22.38;14.82;;;5.90;99.90;;;;;;6138465;23;20009;-37
2024/01/06 04:37:31;;;;;;;20.70;15.13;;;5.90;99.90;;;;;;6138419;23;20417;-38
2024/01/06 04:39:57;;;;;;;25.83;16.85;;;5.90;99.90;;;;;;6138263;23;20005;-37
2024/01/06 04:42:23;;;;;;;23.98;16.23;;;5.90;99.90;;;;;;6138686;23;20531;-37
2024/01/06 04:44:50;;;;;;;25.17;15.82;;;5.80;99.90;;;;;;6140185;23;20012;-38
2024/01/06 04:47:15;;;;;;;22.05;14.43;;;5.80;99.90;;;;;;6137565;23;20005;-38
2024/01/06 04:49:41;;;;;;;22.40;14.88;;;5.80;99.90;;;;;;6139496;23;20021;-38
2024/01/06 04:52:07;;;;;;;27.02;17.80;;;5.70;99.90;;;;;;6139048;23;20012;-37
2024/01/06 04:54:32;;;;;;;31.02;19.42;;;5.70;99.90;;;;;;6137777;23;20064;-38
2024/01/06 04:56:58;;;;;;;29.48;20.05;;;5.60;99.90;;;;;;6139060;23;20028;-37
2024/01/06 04:59:24;;;;;;;28.20;19.75;;;5.50;99.90;;;;;;6137897;23;20002;-37
2024/01/06 05:01:51;;;;;;;26.17;17.48;;;5.50;99.90;;;;;;6139899;23;20491;-37
2024/01/06 05:04:17;;;;;;;21.23;15.18;;;5.40;99.90;;;;;;6138018;23;20756;-37
2024/01/06 05:06:43;;;;;;;24.05;15.85;;;5.30;99.90;;;;;;6138851;23;20017;-37
2024/01/06 05:09:08;;;;;;;21.92;15.00;;;5.30;99.90;;;;;;6137705;23;20018;-38
2024/01/06 05:11:34;;;;;;;21.33;15.20;;;5.30;99.90;;;;;;6139191;23;20013;-44
2024/01/06 05:14:00;;;;;;;16.77;12.60;;;5.30;99.90;;;;;;6139420;23;20475;-37
2024/01/06 05:16:25;;;;;;;19.02;13.45;;;5.30;99.90;;;;;;6139173;23;20009;-37
2024/01/06 05:18:51;;;;;;;18.73;13.18;;;5.30;99.90;;;;;;6140048;23;20009;-38
2024/01/06 05:21:16;;;;;;;18.13;12.82;;;5.20;99.90;;;;;;6139882;23;20012;-38
2024/01/06 05:23:45;;;;;;;14.70;10.93;;;5.20;99.90;;;;;;6140918;23;20013;-38
2024/01/06 05:26:12;;;;;;;19.23;13.75;;;5.20;99.90;;;;;;6139249;23;20464;-37
2024/01/06 05:28:37;;;;;;;20.95;11.98;;;5.20;99.90;;;;;;6139902;23;20005;-38
2024/01/06 05:31:03;;;;;;;16.35;11.95;;;5.20;99.90;;;;;;6139426;23;20448;-37
2024/01/06 05:33:28;;;;;;;17.70;11.85;;;5.10;99.90;;;;;;6140851;23;20014;-40
2024/01/06 05:35:54;;;;;;;16.80;11.85;;;5.10;99.90;;;;;;6139996;23;20520;-36
2024/01/06 05:38:19;;;;;;;15.82;11.52;;;5.10;99.90;;;;;;6140505;23;20376;-36
2024/01/06 05:40:45;;;;;;;16.30;10.70;;;5.10;99.90;;;;;;6140461;23;20009;-36
2024/01/06 05:43:11;;;;;;;16.00;10.98;;;5.10;99.90;;;;;;6140165;23;20519;-37
2024/01/06 05:45:37;;;;;;;16.60;11.20;;;5.00;99.90;;;;;;6140148;23;20013;-36
2024/01/06 05:48:04;;;;;;;18.15;12.25;;;5.00;99.90;;;;;;6140171;23;20010;-37
2024/01/06 05:50:30;;;;;;;17.42;12.52;;;5.00;99.90;;;;;;6140116;23;20455;-40
2024/01/06 05:52:55;;;;;;;16.25;11.63;;;5.00;99.90;;;;;;6140548;23;20594;-37
2024/01/06 05:55:22;;;;;;;19.60;12.15;;;5.00;99.90;;;;;;6140247;23;20724;-37
2024/01/06 05:57:48;;;;;;;15.23;11.52;;;5.00;99.90;;;;;;6140760;23;20657;-37
2024/01/06 06:00:14;;;;;;;15.25;10.90;;;5.00;99.90;;;;;;6140376;23;20016;-37
2024/01/06 06:02:39;;;;;;;16.50;11.40;;;5.00;99.90;;;;;;6140582;23;20010;-37
2024/01/06 06:05:05;;;;;;;18.10;13.05;;;5.00;99.90;;;;;;6139845;23;20668;-37
2024/01/06 06:07:31;;;;;;;16.80;12.07;;;5.00;99.90;;;;;;6140240;23;20006;-38
2024/01/06 06:09:57;;;;;;;14.20;10.85;;;4.90;99.90;;;;;;6139996;23;20045;-38
2024/01/06 06:12:25;;;;;;;15.88;12.07;;;4.90;99.90;;;;;;6140567;23;20013;-38
2024/01/06 06:14:51;;;;;;;17.73;12.52;;;4.90;99.90;;;;;;6140635;23;20039;-37
2024/01/06 06:17:16;;;;;;;16.38;11.82;;;4.90;99.90;;;;;;6139302;23;20929;-36
2024/01/06 06:19:42;;;;;;;17.45;12.77;;;4.90;99.90;;;;;;6141616;23;20876;-36
2024/01/06 06:22:08;;;;;;;17.27;12.20;;;4.90;99.90;;;;;;6140474;23;20369;-37
2024/01/06 06:24:33;;;;;;;16.13;11.95;;;4.90;99.90;;;;;;6140476;23;20013;-37
2024/01/06 06:26:59;;;;;;;17.40;12.73;;;4.90;99.90;;;;;;6141790;23;20017;-37
2024/01/06 06:29:24;;;;;;;15.25;11.73;;;4.80;99.90;;;;;;6140793;23;20524;-38
2024/01/06 06:31:50;;;;;;;16.75;12.25;;;4.70;99.90;;;;;;6140428;23;20413;-39
2024/01/06 06:34:15;;;;;;;15.63;11.63;;;4.70;99.90;;;;;;6140174;23;20392;-36
2024/01/06 06:36:41;;;;;;;17.50;12.45;;;4.70;99.90;;;;;;6140505;23;20103;-36
2024/01/06 06:39:07;;;;;;;17.58;12.68;;;4.70;99.90;;;;;;6139334;23;20005;-37
2024/01/06 06:41:33;;;;;;;14.93;12.05;;;4.70;99.90;;;;;;6139996;23;20017;-37
2024/01/06 06:43:58;;;;;;;17.00;12.30;;;4.70;99.90;;;;;;6139363;23;20057;-37
2024/01/06 06:46:25;;;;;;;14.02;10.35;;;4.60;99.90;;;;;;6139618;23;20001;-37
2024/01/06 06:48:50;;;;;;;15.70;11.48;;;4.70;99.90;;;;;;6139914;23;20016;-36
2024/01/06 06:51:16;;;;;;;14.18;10.48;;;4.70;99.90;;;;;;6140059;23;20016;-36
2024/01/06 06:53:42;;;;;;;14.15;11.20;;;4.70;99.90;;;;;;6139841;23;20400;-36
2024/01/06 06:56:08;;;;;;;14.93;11.32;;;4.70;99.90;;;;;;6113316;23;20033;-37
2024/01/06 06:58:33;;;;;;;16.83;11.63;;;4.70;99.90;;;;;;6140134;23;20437;-39
2024/01/06 07:00:59;;;;;;;14.57;11.07;;;4.70;99.90;;;;;;6139295;23;20002;-37
2024/01/06 07:03:26;;;;;;;14.90;10.55;;;4.70;99.90;;;;;;6139161;23;20014;-37
2024/01/06 07:05:52;;;;;;;12.90;10.52;;;4.70;99.90;;;;;;6138780;23;20747;-38
2024/01/06 07:08:18;;;;;;;13.20;10.77;;;4.70;99.90;;;;;;6138794;23;20005;-37
2024/01/06 07:10:43;;;;;;;12.63;10.45;;;4.60;99.90;;;;;;6139220;23;20144;-37
2024/01/06 07:13:09;;;;;;;15.07;10.35;;;4.60;99.90;;;;;;6138090;23;20235;-36
2024/01/06 07:15:34;;;;;;;12.82;10.35;;;4.60;99.90;;;;;;6139479;23;20006;-36
2024/01/06 07:18:00;;;;;;;12.95;10.20;;;4.60;99.90;;;;;;6139649;23;20794;-36
2024/01/06 07:20:26;;;;;;;13.88;11.10;;;4.60;99.90;;;;;;6139955;23;20005;-36
2024/01/06 07:22:51;;;;;;;14.18;11.13;;;4.50;99.90;;;;;;6140459;23;20680;-36
2024/01/06 07:25:17;;;;;;;15.18;11.52;;;4.50;99.90;;;;;;6137204;23;20601;-36
2024/01/06 07:27:42;;;;;;;13.45;10.63;;;4.50;99.90;;;;;;6139065;23;20524;-36
2024/01/06 07:30:08;;;;;;;11.98;9.85;;;4.50;99.90;;;;;;6139621;23;20025;-37
2024/01/06 07:32:35;;;;;;;13.98;10.27;;;4.50;99.90;;;;;;6139205;23;20100;-37
2024/01/06 07:35:02;;;;;;;11.85;9.48;;;4.50;99.90;;;;;;6138872;23;20358;-37
2024/01/06 07:37:27;;;;;;;15.13;10.75;;;4.50;99.90;;;;;;6113790;23;20523;-36
2024/01/06 07:39:53;;;;;;;14.05;10.65;;;4.50;99.90;;;;;;6140218;23;20100;-37
2024/01/06 07:42:18;;;;;;;13.82;10.48;;;4.50;99.90;;;;;;6138183;23;20111;-37
2024/01/06 07:44:44;;;;;;;11.98;9.68;;;4.50;99.90;;;;;;6139691;23;20006;-36
2024/01/06 07:47:10;;;;;;;12.18;9.75;;;4.50;99.90;;;;;;6139151;23;20025;-36
2024/01/06 07:49:37;;;;;;;13.38;9.30;;;4.50;99.90;;;;;;6138773;23;20013;-37
2024/01/06 07:52:02;;;;;;;12.45;9.82;;;4.50;99.90;;;;;;6139932;23;20011;-36
2024/01/06 07:54:28;;;;;;;13.07;9.88;;;4.50;99.90;;;;;;6139277;23;20005;-36
2024/01/06 07:56:55;;;;;;;12.82;9.82;;;4.50;99.90;;;;;;6139335;23;20002;-37
2024/01/06 07:59:20;;;;;;;12.60;9.82;;;4.50;99.90;;;;;;6139491;23;20013;-37
2024/01/06 08:01:46;;;;;;;14.55;10.45;;;4.50;99.90;;;;;;6140030;23;20464;-36
2024/01/06 08:04:12;;;;;;;13.52;9.85;;;4.50;99.90;;;;;;6139096;23;20024;-37
2024/01/06 08:06:38;;;;;;;13.38;9.80;;;4.50;99.90;;;;;;6140231;23;20009;-37
2024/01/06 08:09:03;;;;;;;10.55;8.60;;;4.40;99.90;;;;;;6140456;23;19998;-37
2024/01/06 08:11:29;;;;;;;12.13;9.05;;;4.40;99.90;;;;;;6141199;23;20417;-37
2024/01/06 08:13:55;;;;;;;11.88;9.18;;;4.50;99.90;;;;;;6139894;23;20006;-39
2024/01/06 08:16:21;;;;;;;12.82;9.15;;;4.50;99.90;;;;;;6139221;23;20010;-37
2024/01/06 08:18:46;;;;;;;11.98;8.68;;;4.40;99.90;;;;;;6139156;23;20032;-36
2024/01/06 08:21:12;;;;;;;13.27;9.35;;;4.40;99.90;;;;;;6138734;23;20736;-36
2024/01/06 08:23:37;;;;;;;11.65;8.68;;;4.40;99.90;;;;;;6139207;23;20005;-38
2024/01/06 08:26:05;;;;;;;13.27;9.00;;;4.40;99.90;;;;;;6139442;23;20001;-36
2024/01/06 08:28:30;;;;;;;11.90;8.43;;;4.40;99.90;;;;;;6140036;23;20014;-36
2024/01/06 08:30:56;;;;;;;11.48;8.13;;;4.40;99.90;;;;;;6137426;23;20040;-37
2024/01/06 08:33:21;;;;;;;13.95;9.15;;;4.40;99.90;;;;;;6136908;23;20289;-37
2024/01/06 08:35:48;;;;;;;12.02;8.70;;;4.40;99.90;;;;;;6138329;23;20009;-36
2024/01/06 08:38:14;;;;;;;12.68;8.63;;;4.40;99.90;;;;;;6136324;23;20009;-36
2024/01/06 08:40:40;;;;;;;13.93;8.82;;;4.40;99.90;;;;;;6138522;23;20124;-36
2024/01/06 08:43:05;;;;;;;14.65;9.52;;;4.40;99.90;;;;;;6138734;23;20088;-36
2024/01/06 08:45:31;;;;;;;13.00;8.95;;;4.40;99.90;;;;;;6137878;23;20480;-36
2024/01/06 08:47:57;;;;;;;12.93;9.68;;;4.40;99.90;;;;;;6137955;23;20005;-36
2024/01/06 08:50:22;;;;;;;15.55;10.23;;;4.40;99.90;;;;;;6138660;23;20136;-38
2024/01/06 08:52:48;;;;;;;14.50;10.25;;;4.40;99.90;;;;;;6138802;23;20055;-37
2024/01/06 08:55:14;;;;;;;16.00;11.23;;;4.40;99.90;;;;;;6139228;23;20122;-36
2024/01/06 08:57:39;;;;;;;17.75;10.65;;;4.40;99.90;;;;;;6140290;23;20016;-38
2024/01/06 09:00:06;;;;;;;18.08;10.80;;;4.40;99.90;;;;;;6137389;23;20499;-37
2024/01/06 09:02:31;;;;;;;18.08;11.23;;;4.40;99.90;;;;;;6138057;23;20586;-37
2024/01/06 09:04:57;;;;;;;17.23;10.73;;;4.40;99.90;;;;;;6138356;23;20055;-36
2024/01/06 09:07:23;;;;;;;15.15;10.40;;;4.40;99.90;;;;;;6139924;23;20088;-37
2024/01/06 09:09:48;;;;;;;16.67;10.55;;;4.40;99.90;;;;;;6141933;23;20712;-37
2024/01/06 09:12:14;;;;;;;14.10;10.10;;;4.30;99.90;;;;;;6140160;23;20013;-37
2024/01/06 09:14:40;;;;;;;12.77;9.65;;;4.40;99.90;;;;;;6140566;23;20080;-37
2024/01/06 09:17:06;;;;;;;13.23;9.65;;;4.40;99.90;;;;;;6139987;23;20190;-37
2024/01/06 09:19:32;;;;;;;14.27;9.75;;;4.40;99.90;;;;;;6139596;23;20006;-37
2024/01/06 09:21:57;;;;;;;14.23;10.00;;;4.40;99.90;;;;;;6140493;23;20100;-36
2024/01/06 09:24:23;;;;;;;13.52;9.88;;;4.40;99.90;;;;;;6141429;23;20431;-37
2024/01/06 09:26:50;;;;;;;16.05;11.38;;;4.40;99.90;;;;;;6140280;23;20029;-38
2024/01/06 09:29:16;;;;;;;18.05;12.05;;;4.40;99.90;;;;;;6141012;23;20025;-36
2024/01/06 09:31:45;;;;;;;17.13;12.13;;;4.40;99.90;;;;;;6141115;23;20009;-37
2024/01/06 09:34:12;;;;;;;17.55;12.38;;;4.40;99.90;;;;;;6139438;23;20401;-37
2024/01/06 09:36:38;;;;;;;18.75;12.77;;;4.30;99.90;;;;;;6141799;23;20039;-39
2024/01/06 09:39:04;;;;;;;17.83;12.35;;;4.30;99.90;;;;;;6140341;23;20437;-36
2024/01/06 09:41:30;;;;;;;17.98;12.88;;;4.30;99.90;;;;;;6140253;23;20092;-37
2024/01/06 09:43:56;;;;;;;16.80;11.60;;;4.30;99.90;;;;;;6140580;23;20001;-37
2024/01/06 09:46:29;;;;;;;18.55;12.82;;;4.20;99.90;;;;;;6140088;23;20013;-36
2024/01/06 09:48:57;;;;;;;14.75;11.15;;;4.20;99.90;;;;;;6139828;23;20005;-37
2024/01/06 09:51:23;;;;;;;19.02;13.23;;;4.20;99.90;;;;;;6140643;23;20009;-36
2024/01/06 09:54:06;;;;;;;16.73;12.10;;;4.20;99.90;;;;;;6141105;23;20001;-36
2024/01/06 09:56:32;;;;;;;17.35;11.90;;;4.20;99.90;;;;;;6139355;23;20016;-35
2024/01/06 09:58:58;;;;;;;14.32;11.00;;;4.20;99.90;;;;;;6140337;23;20001;-37
2024/01/06 10:01:24;;;;;;;14.70;10.82;;;4.20;99.90;;;;;;6139733;23;20020;-37
2024/01/06 10:03:49;;;;;;;16.95;12.13;;;4.20;99.90;;;;;;6139154;23;20100;-36
2024/01/06 10:06:15;;;;;;;16.55;11.65;;;4.30;99.90;;;;;;6139287;23;20013;-37
2024/01/06 10:08:48;;;;;;;18.33;12.10;;;4.30;99.90;;;;;;6139875;23;20009;-36
2024/01/06 10:11:13;;;;;;;16.02;11.32;;;4.30;99.90;;;;;;6162355;23;20353;-37
2024/01/06 10:13:42;;;;;;;16.65;12.13;;;4.30;99.90;;;;;;6138385;23;20006;-37
2024/01/06 10:16:08;;;;;;;17.60;11.68;;;4.30;99.90;;;;;;6138551;23;20044;-37
2024/01/06 10:18:35;;;;;;;17.33;12.38;;;4.20;99.90;;;;;;6139749;23;20041;-36
2024/01/06 10:21:05;;;;;;;18.92;13.23;;;4.30;99.90;;;;;;6139748;23;20036;-36
2024/01/06 10:23:32;;;;;;;17.95;13.13;;;4.20;99.90;;;;;;6139508;23;20009;-37
2024/01/06 10:25:57;;;;;;;15.55;10.82;;;4.20;99.90;;;;;;6140335;23;20017;-37
2024/01/06 10:28:23;;;;;;;16.38;11.32;;;4.20;99.90;;;;;;6140127;23;20033;-37
2024/01/06 10:30:53;;;;;;;16.75;11.65;;;4.30;99.90;;;;;;6139454;23;20013;-36
2024/01/06 10:33:27;;;;;;;15.55;11.18;;;4.30;99.90;;;;;;6139775;23;20733;-36
2024/01/06 10:35:56;;;;;;;15.75;12.00;;;4.30;99.90;;;;;;6140171;23;20083;-36
2024/01/06 10:38:22;;;;;;;15.50;11.35;;;4.30;99.90;;;;;;6139170;23;20006;-39
2024/01/06 10:41:06;;;;;;;18.98;12.90;;;4.30;99.90;;;;;;6140103;23;20017;-37
2024/01/06 10:43:36;;;;;;;17.17;12.38;;;4.30;99.90;;;;;;6138857;23;20017;-38
2024/01/06 10:46:04;;;;;;;17.38;12.90;;;4.30;99.90;;;;;;6139002;23;20012;-35
2024/01/06 10:48:34;;;;;;;18.05;12.85;;;4.30;99.90;;;;;;6140096;23;20091;-36
2024/01/06 10:51:00;;;;;;;17.15;12.35;;;4.30;99.90;;;;;;6139185;23;20022;-36
2024/01/06 10:53:27;;;;;;;15.65;11.43;;;4.30;99.90;;;;;;6139477;23;20005;-37
2024/01/06 10:55:53;;;;;;;17.67;12.40;;;4.30;99.90;;;;;;6140088;23;20009;-38
2024/01/06 10:58:19;;;;;;;14.73;11.52;;;4.30;99.90;;;;;;6139004;23;20005;-37
2024/01/06 11:00:46;;;;;;;16.35;12.60;;;4.40;99.90;;;;;;6140036;23;20001;-37
2024/01/06 11:03:13;;;;;;;18.20;12.60;;;4.30;99.90;;;;;;6139753;23;20005;-37
2024/01/06 11:05:41;;;;;;;18.13;11.90;;;4.40;99.90;;;;;;6139683;23;20089;-37
2024/01/06 11:08:07;;;;;;;16.58;13.02;;;4.30;99.90;;;;;;6140093;23;20326;-36
2024/01/06 11:10:36;;;;;;;17.08;12.60;;;4.30;99.90;;;;;;6139862;23;20084;-36
2024/01/06 11:13:12;;;;;;;18.73;13.52;;;4.30;99.90;;;;;;6138217;23;20048;-37
2024/01/06 11:15:45;;;;;;;19.73;13.93;;;4.20;99.90;;;;;;6139709;23;20017;-38
2024/01/06 11:18:40;;;;;;;15.90;12.77;;;4.20;99.90;;;;;;6139477;23;20422;-36
2024/01/06 11:21:28;;;;;;;15.32;12.35;;;4.20;99.90;;;;;;6138867;23;20008;-38
2024/01/06 11:24:16;;;;;;;16.52;13.13;;;4.20;99.90;;;;;;6141047;23;20125;-37
2024/01/06 11:26:45;;;;;;;18.35;12.55;;;4.20;99.90;;;;;;6139141;23;20006;-38
2024/01/06 11:29:11;;;;;;;17.67;12.63;;;4.20;99.90;;;;;;6139370;23;20001;-37
2024/01/06 11:31:37;;;;;;;17.50;13.05;;;4.20;99.90;;;;;;6140910;23;20378;-37
2024/01/06 11:34:14;;;;;;;17.70;13.00;;;4.20;99.90;;;;;;6139707;23;20018;-38
2024/01/06 11:36:40;;;;;;;17.67;12.60;;;4.20;99.90;;;;;;6141330;23;20306;-38
2024/01/06 11:39:06;;;;;;;16.08;13.05;;;4.10;99.90;;;;;;6140429;23;20009;-38
2024/01/06 11:41:51;;;;;;;19.08;13.45;;;4.10;99.90;;;;;;6139694;23;20009;-37
2024/01/06 11:44:23;;;;;;;16.05;12.23;;;4.10;99.90;;;;;;6138383;23;20709;-38
2024/01/06 11:46:52;;;;;;;16.40;13.07;;;4.10;99.90;;;;;;6139816;23;20001;-38
2024/01/06 11:49:20;;;;;;;17.02;12.45;;;4.10;99.90;;;;;;6139385;23;20092;-37
2024/01/06 11:51:46;;;;;;;17.52;12.02;;;4.00;99.90;;;;;;6139906;23;20005;-37
2024/01/06 11:54:12;;;;;;;17.77;13.02;;;4.00;99.90;;;;;;6138331;23;20008;-37
2024/01/06 11:56:38;;;;;;;14.93;11.48;;;4.00;99.90;;;;;;6140471;23;20013;-37
2024/01/06 11:59:04;;;;;;;14.70;11.35;;;4.10;99.90;;;;;;6139511;23;20321;-38
2024/01/06 12:01:39;;;;;;;15.55;11.13;;;4.10;99.90;;;;;;6139038;23;20005;-36
2024/01/06 12:04:05;;;;;;;17.05;11.77;;;4.10;99.90;;;;;;6139440;23;20017;-39
2024/01/06 12:06:32;;;;;;;16.27;12.00;;;4.10;99.90;;;;;;6140106;23;20016;-37
2024/01/06 12:09:07;;;;;;;17.58;12.50;;;4.10;99.90;;;;;;6140250;23;20006;-35
2024/01/06 12:11:33;;;;;;;17.80;12.77;;;4.10;99.90;;;;;;6141742;23;20379;-37
2024/01/06 12:13:59;;;;;;;15.75;11.77;;;4.10;99.90;;;;;;6140446;23;20993;-36
2024/01/06 12:16:28;;;;;;;16.17;12.43;;;4.10;99.90;;;;;;6138745;23;20024;-36
2024/01/06 12:19:00;;;;;;;16.35;12.75;;;4.10;99.90;;;;;;6139001;23;20615;-37
2024/01/06 12:21:27;;;;;;;14.32;11.23;;;4.00;99.90;;;;;;6138666;23;20429;-36
2024/01/06 12:23:52;;;;;;;15.93;11.02;;;4.00;99.90;;;;;;6138645;23;20005;-36
2024/01/06 12:26:19;;;;;;;14.70;11.52;;;4.00;99.90;;;;;;6138533;23;20067;-37
2024/01/06 12:28:52;;;;;;;12.55;10.05;;;4.00;99.90;;;;;;6140511;23;20016;-37
2024/01/06 12:31:20;;;;;;;15.65;11.38;;;4.00;99.90;;;;;;6138112;23;20096;-37
2024/01/06 12:33:46;;;;;;;15.25;11.35;;;4.00;99.90;;;;;;6140141;23;20002;-36
2024/01/06 12:36:14;;;;;;;15.27;11.13;;;4.00;99.90;;;;;;6139928;23;20636;-36